createdAt,value
2022-08-16T04:36:56.763Z,23.60
2022-08-16T04:39:45.881Z,24.30
2022-08-16T04:42:13.736Z,24.20
2022-08-16T04:44:54.193Z,24.20
2022-08-16T04:47:32.995Z,24.20
2022-08-16T04:50:05.101Z,24.20
2022-08-16T04:52:35.765Z,24.20
2022-08-16T04:55:08.131Z,24.30
2022-08-16T04:57:37.286Z,24.40
2022-08-16T05:00:31.089Z,24.50
2022-08-16T05:03:02.835Z,24.60
2022-08-16T05:05:45.255Z,24.80
2022-08-16T05:08:28.770Z,24.90
2022-08-16T05:10:59.997Z,24.90
2022-08-16T05:13:40.601Z,25.00
2022-08-16T05:16:19.680Z,25.20
2022-08-16T05:18:49.162Z,25.30
2022-08-16T05:21:17.467Z,25.30
2022-08-16T05:23:51.648Z,25.40
2022-08-16T05:26:28.023Z,25.50
2022-08-16T05:28:56.916Z,25.60
2022-08-16T05:31:29.617Z,25.70
2022-08-16T05:34:00.182Z,25.80
2022-08-16T05:36:34.131Z,25.80
2022-08-16T05:39:06.391Z,25.80
2022-08-16T05:41:45.422Z,25.80
2022-08-16T05:44:23.140Z,25.70
2022-08-16T05:46:56.208Z,25.70
2022-08-16T05:49:24.606Z,25.70
2022-08-16T05:51:55.371Z,25.70
2022-08-16T05:54:25.910Z,25.70
2022-08-16T05:56:55.843Z,25.70
2022-08-16T05:59:24.816Z,25.70
2022-08-16T06:01:56.959Z,25.70
2022-08-16T06:04:34.867Z,25.80
2022-08-16T06:07:08.239Z,25.70
2022-08-16T06:09:43.632Z,25.70
2022-08-16T06:12:27.430Z,25.70
2022-08-16T06:14:59.076Z,25.70
2022-08-16T06:17:42.486Z,25.70
2022-08-16T06:20:18.635Z,25.70
2022-08-16T06:22:57.412Z,25.70
2022-08-16T06:25:36.407Z,25.70
2022-08-16T06:28:09.465Z,25.70
2022-08-16T06:30:44.140Z,25.70
2022-08-16T06:33:22.300Z,25.80
2022-08-16T06:35:54.783Z,25.80
2022-08-16T06:38:33.923Z,25.80
2022-08-16T06:41:05.458Z,25.80
2022-08-16T06:43:34.435Z,25.80
2022-08-16T06:46:05.987Z,25.80
2022-08-16T06:48:43.122Z,25.80
2022-08-16T06:51:11.654Z,25.80
2022-08-16T06:53:43.142Z,25.80
2022-08-16T06:56:14.228Z,25.90
2022-08-16T06:58:47.810Z,25.90
2022-08-16T07:01:21.381Z,25.90
2022-08-16T07:03:57.275Z,25.90
2022-08-16T07:06:26.697Z,26.00
2022-08-16T07:08:55.936Z,26.00
2022-08-16T07:11:45.925Z,26.00
